sensor_id;sensor_type;location;lat;lon;timestamp;temperature;humidity
33508;DHT22;25568;37.410;-122.096;2022-12-11T00:01:58;18.70;84.80
33508;DHT22;25568;37.410;-122.096;2022-12-11T00:04:27;18.70;84.80
33508;DHT22;25568;37.410;-122.096;2022-12-11T00:07:00;18.70;84.80
33508;DHT22;25568;37.410;-122.096;2022-12-11T00:09:29;18.70;84.70
33508;DHT22;25568;37.410;-122.096;2022-12-11T00:11:57;18.70;84.70
33508;DHT22;25568;37.410;-122.096;2022-12-11T00:14:32;18.70;84.60
33508;DHT22;25568;37.410;-122.096;2022-12-11T00:17:01;18.70;84.50
33508;DHT22;25568;37.410;-122.096;2022-12-11T00:19:34;18.70;84.50
33508;DHT22;25568;37.410;-122.096;2022-12-11T00:22:03;18.70;84.40
33508;DHT22;25568;37.410;-122.096;2022-12-11T00:24:32;18.70;84.40
33508;DHT22;25568;37.410;-122.096;2022-12-11T00:27:01;18.70;84.30
33508;DHT22;25568;37.410;-122.096;2022-12-11T00:29:32;18.70;84.10
33508;DHT22;25568;37.410;-122.096;2022-12-11T00:32:00;18.70;84.20
33508;DHT22;25568;37.410;-122.096;2022-12-11T00:34:32;18.70;84.20
33508;DHT22;25568;37.410;-122.096;2022-12-11T00:37:01;18.70;84.30
33508;DHT22;25568;37.410;-122.096;2022-12-11T00:39:29;18.70;84.40
33508;DHT22;25568;37.410;-122.096;2022-12-11T00:41:58;18.70;84.40
33508;DHT22;25568;37.410;-122.096;2022-12-11T00:44:27;18.70;85.80
33508;DHT22;25568;37.410;-122.096;2022-12-11T00:46:58;18.80;89.00
33508;DHT22;25568;37.410;-122.096;2022-12-11T00:49:27;18.80;90.00
33508;DHT22;25568;37.410;-122.096;2022-12-11T00:51:55;18.80;89.80
33508;DHT22;25568;37.410;-122.096;2022-12-11T00:54:24;18.80;89.60
33508;DHT22;25568;37.410;-122.096;2022-12-11T00:56:55;18.80;89.30
33508;DHT22;25568;37.410;-122.096;2022-12-11T00:59:25;18.80;89.10
33508;DHT22;25568;37.410;-122.096;2022-12-11T01:01:57;18.80;89.40
33508;DHT22;25568;37.410;-122.096;2022-12-11T01:04:26;18.80;89.20
33508;DHT22;25568;37.410;-122.096;2022-12-11T01:06:55;18.80;89.30
33508;DHT22;25568;37.410;-122.096;2022-12-11T01:09:24;18.80;89.60
33508;DHT22;25568;37.410;-122.096;2022-12-11T01:12:09;18.80;89.60
33508;DHT22;25568;37.410;-122.096;2022-12-11T01:14:38;18.80;89.80
33508;DHT22;25568;37.410;-122.096;2022-12-11T01:17:09;18.80;89.90
33508;DHT22;25568;37.410;-122.096;2022-12-11T01:19:37;18.80;90.00
33508;DHT22;25568;37.410;-122.096;2022-12-11T01:22:06;18.80;90.00
33508;DHT22;25568;37.410;-122.096;2022-12-11T01:24:35;18.80;90.00
33508;DHT22;25568;37.410;-122.096;2022-12-11T01:27:04;18.80;90.00
33508;DHT22;25568;37.410;-122.096;2022-12-11T01:29:34;18.80;90.00
33508;DHT22;25568;37.410;-122.096;2022-12-11T01:32:03;18.80;90.10
33508;DHT22;25568;37.410;-122.096;2022-12-11T01:34:37;18.70;90.10
33508;DHT22;25568;37.410;-122.096;2022-12-11T01:37:06;18.80;90.10
33508;DHT22;25568;37.410;-122.096;2022-12-11T01:39:35;18.70;90.10
33508;DHT22;25568;37.410;-122.096;2022-12-11T01:42:05;18.70;90.20
33508;DHT22;25568;37.410;-122.096;2022-12-11T01:45:17;18.70;90.20
33508;DHT22;25568;37.410;-122.096;2022-12-11T01:47:47;18.70;90.20
33508;DHT22;25568;37.410;-122.096;2022-12-11T01:50:19;18.70;90.20
33508;DHT22;25568;37.410;-122.096;2022-12-11T01:52:52;18.70;90.10
33508;DHT22;25568;37.410;-122.096;2022-12-11T01:55:21;18.80;90.20
33508;DHT22;25568;37.410;-122.096;2022-12-11T01:57:50;18.80;90.20
33508;DHT22;25568;37.410;-122.096;2022-12-11T02:00:21;18.70;90.20
33508;DHT22;25568;37.410;-122.096;2022-12-11T02:02:50;18.70;90.20
33508;DHT22;25568;37.410;-122.096;2022-12-11T02:05:20;18.70;90.20
33508;DHT22;25568;37.410;-122.096;2022-12-11T02:07:52;18.70;90.20
33508;DHT22;25568;37.410;-122.096;2022-12-11T02:13:13;18.70;90.20
33508;DHT22;25568;37.410;-122.096;2022-12-11T02:15:50;18.70;90.20
33508;DHT22;25568;37.410;-122.096;2022-12-11T02:18:26;18.70;90.30
33508;DHT22;25568;37.410;-122.096;2022-12-11T02:21:05;18.70;90.20
33508;DHT22;25568;37.410;-122.096;2022-12-11T02:23:58;18.70;90.20
33508;DHT22;25568;37.410;-122.096;2022-12-11T02:26:48;18.70;90.20
33508;DHT22;25568;37.410;-122.096;2022-12-11T02:29:24;18.70;90.20
33508;DHT22;25568;37.410;-122.096;2022-12-11T02:31:58;18.70;90.20
33508;DHT22;25568;37.410;-122.096;2022-12-11T02:34:36;18.70;90.20
33508;DHT22;25568;37.410;-122.096;2022-12-11T02:37:13;18.70;90.20
33508;DHT22;25568;37.410;-122.096;2022-12-11T02:39:45;18.70;90.20
33508;DHT22;25568;37.410;-122.096;2022-12-11T02:42:18;18.70;90.10
33508;DHT22;25568;37.410;-122.096;2022-12-11T02:44:51;18.60;90.10
33508;DHT22;25568;37.410;-122.096;2022-12-11T02:47:22;18.60;90.20
33508;DHT22;25568;37.410;-122.096;2022-12-11T02:49:57;18.60;90.10
33508;DHT22;25568;37.410;-122.096;2022-12-11T02:52:29;18.60;90.10
33508;DHT22;25568;37.410;-122.096;2022-12-11T02:55:14;18.60;90.10
33508;DHT22;25568;37.410;-122.096;2022-12-11T02:57:47;18.60;90.00
33508;DHT22;25568;37.410;-122.096;2022-12-11T03:00:20;18.60;90.00
33508;DHT22;25568;37.410;-122.096;2022-12-11T03:02:49;18.60;90.00
33508;DHT22;25568;37.410;-122.096;2022-12-11T03:05:19;18.60;90.00
33508;DHT22;25568;37.410;-122.096;2022-12-11T03:07:48;18.60;89.90
33508;DHT22;25568;37.410;-122.096;2022-12-11T03:10:18;18.60;89.80
33508;DHT22;25568;37.410;-122.096;2022-12-11T03:12:50;18.50;89.70
33508;DHT22;25568;37.410;-122.096;2022-12-11T03:15:25;18.50;89.70
33508;DHT22;25568;37.410;-122.096;2022-12-11T03:18:03;18.50;89.70
33508;DHT22;25568;37.410;-122.096;2022-12-11T03:20:38;18.50;90.10
33508;DHT22;25568;37.410;-122.096;2022-12-11T03:23:13;18.50;89.50
33508;DHT22;25568;37.410;-122.096;2022-12-11T03:25:51;18.50;89.50
33508;DHT22;25568;37.410;-122.096;2022-12-11T03:28:25;18.50;89.40
33508;DHT22;25568;37.410;-122.096;2022-12-11T03:30:57;18.50;89.40
33508;DHT22;25568;37.410;-122.096;2022-12-11T03:33:34;18.50;89.30
33508;DHT22;25568;37.410;-122.096;2022-12-11T03:36:07;18.50;89.20
33508;DHT22;25568;37.410;-122.096;2022-12-11T03:38:40;18.50;89.20
33508;DHT22;25568;37.410;-122.096;2022-12-11T03:41:11;18.50;89.20
33508;DHT22;25568;37.410;-122.096;2022-12-11T03:43:41;18.40;89.00
33508;DHT22;25568;37.410;-122.096;2022-12-11T03:46:13;18.40;89.00
33508;DHT22;25568;37.410;-122.096;2022-12-11T03:48:43;18.40;89.00
33508;DHT22;25568;37.410;-122.096;2022-12-11T03:51:15;18.40;88.90
33508;DHT22;25568;37.410;-122.096;2022-12-11T03:53:45;18.40;88.90
33508;DHT22;25568;37.410;-122.096;2022-12-11T03:56:16;18.40;88.80
33508;DHT22;25568;37.410;-122.096;2022-12-11T03:58:49;18.40;88.80
33508;DHT22;25568;37.410;-122.096;2022-12-11T04:01:19;18.40;88.80
33508;DHT22;25568;37.410;-122.096;2022-12-11T04:03:48;18.40;88.80
33508;DHT22;25568;37.410;-122.096;2022-12-11T04:06:17;18.40;88.80
33508;DHT22;25568;37.410;-122.096;2022-12-11T04:08:46;18.40;88.70
33508;DHT22;25568;37.410;-122.096;2022-12-11T04:11:15;18.40;88.60
33508;DHT22;25568;37.410;-122.096;2022-12-11T04:14:02;18.40;88.50
33508;DHT22;25568;37.410;-122.096;2022-12-11T04:16:49;18.40;88.20
33508;DHT22;25568;37.410;-122.096;2022-12-11T04:19:19;18.50;88.10
33508;DHT22;25568;37.410;-122.096;2022-12-11T04:22:04;18.50;89.00
33508;DHT22;25568;37.410;-122.096;2022-12-11T04:24:50;18.50;88.20
33508;DHT22;25568;37.410;-122.096;2022-12-11T04:27:19;18.50;88.10
33508;DHT22;25568;37.410;-122.096;2022-12-11T04:30:02;18.50;88.90
33508;DHT22;25568;37.410;-122.096;2022-12-11T04:32:32;18.50;88.10
33508;DHT22;25568;37.410;-122.096;2022-12-11T04:35:01;18.50;88.20
33508;DHT22;25568;37.410;-122.096;2022-12-11T04:37:30;18.50;88.20
33508;DHT22;25568;37.410;-122.096;2022-12-11T04:39:59;18.50;88.20
33508;DHT22;25568;37.410;-122.096;2022-12-11T04:42:27;18.50;88.10
33508;DHT22;25568;37.410;-122.096;2022-12-11T04:44:56;18.60;88.20
33508;DHT22;25568;37.410;-122.096;2022-12-11T04:47:25;18.60;88.20
33508;DHT22;25568;37.410;-122.096;2022-12-11T04:49:56;18.60;88.10
33508;DHT22;25568;37.410;-122.096;2022-12-11T04:52:25;18.60;88.20
33508;DHT22;25568;37.410;-122.096;2022-12-11T04:54:53;18.60;88.10
33508;DHT22;25568;37.410;-122.096;2022-12-11T04:57:22;18.60;88.10
33508;DHT22;25568;37.410;-122.096;2022-12-11T04:59:51;18.60;88.10
33508;DHT22;25568;37.410;-122.096;2022-12-11T05:02:20;18.60;88.00
33508;DHT22;25568;37.410;-122.096;2022-12-11T05:04:49;18.60;87.90
33508;DHT22;25568;37.410;-122.096;2022-12-11T05:07:19;18.70;88.00
33508;DHT22;25568;37.410;-122.096;2022-12-11T05:09:48;18.70;87.80
33508;DHT22;25568;37.410;-122.096;2022-12-11T05:12:17;18.70;87.70
33508;DHT22;25568;37.410;-122.096;2022-12-11T05:14:46;18.70;87.70
33508;DHT22;25568;37.410;-122.096;2022-12-11T05:17:15;18.70;87.50
33508;DHT22;25568;37.410;-122.096;2022-12-11T05:19:45;18.60;87.30
33508;DHT22;25568;37.410;-122.096;2022-12-11T05:22:19;18.70;87.20
33508;DHT22;25568;37.410;-122.096;2022-12-11T05:24:49;18.70;87.10
33508;DHT22;25568;37.410;-122.096;2022-12-11T05:27:18;18.60;87.00
33508;DHT22;25568;37.410;-122.096;2022-12-11T05:29:47;18.60;87.00
33508;DHT22;25568;37.410;-122.096;2022-12-11T05:32:16;18.60;86.90
33508;DHT22;25568;37.410;-122.096;2022-12-11T05:34:45;18.60;86.80
33508;DHT22;25568;37.410;-122.096;2022-12-11T05:37:13;18.60;86.80
33508;DHT22;25568;37.410;-122.096;2022-12-11T05:39:44;18.60;86.80
33508;DHT22;25568;37.410;-122.096;2022-12-11T05:42:13;18.60;86.80
33508;DHT22;25568;37.410;-122.096;2022-12-11T05:44:41;18.60;86.60
33508;DHT22;25568;37.410;-122.096;2022-12-11T05:47:10;18.60;86.60
33508;DHT22;25568;37.410;-122.096;2022-12-11T05:49:39;18.60;86.50
33508;DHT22;25568;37.410;-122.096;2022-12-11T05:52:09;18.60;86.40
33508;DHT22;25568;37.410;-122.096;2022-12-11T05:54:37;18.50;86.40
33508;DHT22;25568;37.410;-122.096;2022-12-11T05:57:08;18.50;86.40
33508;DHT22;25568;37.410;-122.096;2022-12-11T05:59:40;18.60;86.30
33508;DHT22;25568;37.410;-122.096;2022-12-11T06:02:09;18.50;86.20
33508;DHT22;25568;37.410;-122.096;2022-12-11T06:04:38;18.50;86.20
33508;DHT22;25568;37.410;-122.096;2022-12-11T06:07:10;18.50;86.20
33508;DHT22;25568;37.410;-122.096;2022-12-11T06:09:43;18.50;86.30
33508;DHT22;25568;37.410;-122.096;2022-12-11T06:12:14;18.50;86.40
33508;DHT22;25568;37.410;-122.096;2022-12-11T06:14:42;18.50;85.80
33508;DHT22;25568;37.410;-122.096;2022-12-11T06:17:11;18.50;85.80
33508;DHT22;25568;37.410;-122.096;2022-12-11T06:19:40;18.50;86.40
33508;DHT22;25568;37.410;-122.096;2022-12-11T06:22:09;18.40;85.30
33508;DHT22;25568;37.410;-122.096;2022-12-11T06:24:38;18.50;85.30
33508;DHT22;25568;37.410;-122.096;2022-12-11T06:27:07;18.50;85.40
33508;DHT22;25568;37.410;-122.096;2022-12-11T06:29:37;18.50;85.30
33508;DHT22;25568;37.410;-122.096;2022-12-11T06:32:06;18.40;85.40
33508;DHT22;25568;37.410;-122.096;2022-12-11T06:34:35;18.40;85.30
33508;DHT22;25568;37.410;-122.096;2022-12-11T06:37:04;18.50;85.30
33508;DHT22;25568;37.410;-122.096;2022-12-11T06:39:32;18.40;85.20
33508;DHT22;25568;37.410;-122.096;2022-12-11T06:42:01;18.40;85.20
33508;DHT22;25568;37.410;-122.096;2022-12-11T06:44:30;18.40;85.30
33508;DHT22;25568;37.410;-122.096;2022-12-11T06:47:00;18.40;85.30
33508;DHT22;25568;37.410;-122.096;2022-12-11T06:49:29;18.40;85.20
33508;DHT22;25568;37.410;-122.096;2022-12-11T06:51:58;18.40;86.00
33508;DHT22;25568;37.410;-122.096;2022-12-11T06:54:27;18.40;85.10
33508;DHT22;25568;37.410;-122.096;2022-12-11T06:56:55;18.40;85.10
33508;DHT22;25568;37.410;-122.096;2022-12-11T06:59:24;18.30;85.10
33508;DHT22;25568;37.410;-122.096;2022-12-11T07:01:53;18.30;85.10
33508;DHT22;25568;37.410;-122.096;2022-12-11T07:04:24;18.30;85.20
33508;DHT22;25568;37.410;-122.096;2022-12-11T07:06:53;18.30;85.10
33508;DHT22;25568;37.410;-122.096;2022-12-11T07:09:22;18.30;85.10
33508;DHT22;25568;37.410;-122.096;2022-12-11T07:11:51;18.20;85.00
33508;DHT22;25568;37.410;-122.096;2022-12-11T07:14:20;18.30;85.10
33508;DHT22;25568;37.410;-122.096;2022-12-11T07:16:49;18.20;85.10
33508;DHT22;25568;37.410;-122.096;2022-12-11T07:19:18;18.20;85.10
33508;DHT22;25568;37.410;-122.096;2022-12-11T07:21:49;18.20;85.30
33508;DHT22;25568;37.410;-122.096;2022-12-11T07:24:18;18.20;85.20
33508;DHT22;25568;37.410;-122.096;2022-12-11T07:26:46;18.20;85.30
33508;DHT22;25568;37.410;-122.096;2022-12-11T07:29:15;18.20;85.10
33508;DHT22;25568;37.410;-122.096;2022-12-11T07:31:44;18.20;85.80
33508;DHT22;25568;37.410;-122.096;2022-12-11T07:34:13;18.30;85.10
33508;DHT22;25568;37.410;-122.096;2022-12-11T07:36:45;18.30;85.20
33508;DHT22;25568;37.410;-122.096;2022-12-11T07:39:19;18.30;85.20
33508;DHT22;25568;37.410;-122.096;2022-12-11T07:41:47;18.30;85.10
33508;DHT22;25568;37.410;-122.096;2022-12-11T07:44:16;18.40;85.30
33508;DHT22;25568;37.410;-122.096;2022-12-11T07:46:45;18.40;85.30
33508;DHT22;25568;37.410;-122.096;2022-12-11T07:49:14;18.40;85.20
33508;DHT22;25568;37.410;-122.096;2022-12-11T07:51:43;18.40;85.30
33508;DHT22;25568;37.410;-122.096;2022-12-11T07:54:13;18.40;85.20
33508;DHT22;25568;37.410;-122.096;2022-12-11T07:56:46;18.40;85.40
33508;DHT22;25568;37.410;-122.096;2022-12-11T07:59:15;18.40;85.40
33508;DHT22;25568;37.410;-122.096;2022-12-11T08:01:44;18.40;85.40
33508;DHT22;25568;37.410;-122.096;2022-12-11T08:04:12;18.40;85.40
33508;DHT22;25568;37.410;-122.096;2022-12-11T08:06:42;18.40;85.50
33508;DHT22;25568;37.410;-122.096;2022-12-11T08:09:12;18.40;85.40
33508;DHT22;25568;37.410;-122.096;2022-12-11T08:11:43;18.50;85.60
33508;DHT22;25568;37.410;-122.096;2022-12-11T08:14:14;18.50;85.60
33508;DHT22;25568;37.410;-122.096;2022-12-11T08:16:43;18.50;85.60
33508;DHT22;25568;37.410;-122.096;2022-12-11T08:19:12;18.50;85.70
33508;DHT22;25568;37.410;-122.096;2022-12-11T08:21:41;18.50;85.70
33508;DHT22;25568;37.410;-122.096;2022-12-11T08:24:10;18.50;85.80
33508;DHT22;25568;37.410;-122.096;2022-12-11T08:26:43;18.50;85.80
33508;DHT22;25568;37.410;-122.096;2022-12-11T08:29:12;18.50;85.80
33508;DHT22;25568;37.410;-122.096;2022-12-11T08:31:41;18.50;85.80
33508;DHT22;25568;37.410;-122.096;2022-12-11T08:34:10;18.60;85.90
33508;DHT22;25568;37.410;-122.096;2022-12-11T08:36:40;18.60;85.90
33508;DHT22;25568;37.410;-122.096;2022-12-11T08:39:10;18.50;85.80
33508;DHT22;25568;37.410;-122.096;2022-12-11T08:41:39;18.50;85.80
33508;DHT22;25568;37.410;-122.096;2022-12-11T08:44:12;18.50;85.80
33508;DHT22;25568;37.410;-122.096;2022-12-11T08:46:41;18.50;85.80
33508;DHT22;25568;37.410;-122.096;2022-12-11T08:49:10;18.50;85.90
33508;DHT22;25568;37.410;-122.096;2022-12-11T08:51:39;18.50;85.80
33508;DHT22;25568;37.410;-122.096;2022-12-11T08:54:09;18.50;85.80
33508;DHT22;25568;37.410;-122.096;2022-12-11T08:56:41;18.50;85.80
33508;DHT22;25568;37.410;-122.096;2022-12-11T08:59:11;18.50;85.80
33508;DHT22;25568;37.410;-122.096;2022-12-11T09:01:40;18.50;85.80
33508;DHT22;25568;37.410;-122.096;2022-12-11T09:04:17;18.50;85.80
33508;DHT22;25568;37.410;-122.096;2022-12-11T09:06:46;18.50;85.80
33508;DHT22;25568;37.410;-122.096;2022-12-11T09:09:15;18.50;85.80
33508;DHT22;25568;37.410;-122.096;2022-12-11T09:11:44;18.50;85.80
33508;DHT22;25568;37.410;-122.096;2022-12-11T09:14:14;18.40;85.90
33508;DHT22;25568;37.410;-122.096;2022-12-11T09:16:43;18.40;85.80
33508;DHT22;25568;37.410;-122.096;2022-12-11T09:19:13;18.40;85.90
33508;DHT22;25568;37.410;-122.096;2022-12-11T09:21:43;18.40;86.00
33508;DHT22;25568;37.410;-122.096;2022-12-11T09:24:13;18.30;86.00
33508;DHT22;25568;37.410;-122.096;2022-12-11T09:26:42;18.30;86.20
33508;DHT22;25568;37.410;-122.096;2022-12-11T09:29:14;18.30;86.20
33508;DHT22;25568;37.410;-122.096;2022-12-11T09:31:43;18.30;86.20
33508;DHT22;25568;37.410;-122.096;2022-12-11T09:34:13;18.30;86.30
33508;DHT22;25568;37.410;-122.096;2022-12-11T09:36:42;18.30;86.40
33508;DHT22;25568;37.410;-122.096;2022-12-11T09:39:12;18.20;87.30
33508;DHT22;25568;37.410;-122.096;2022-12-11T09:41:49;18.20;86.50
33508;DHT22;25568;37.410;-122.096;2022-12-11T09:44:38;18.20;86.40
33508;DHT22;25568;37.410;-122.096;2022-12-11T09:47:18;18.20;86.60
33508;DHT22;25568;37.410;-122.096;2022-12-11T09:49:50;18.20;86.60
33508;DHT22;25568;37.410;-122.096;2022-12-11T09:52:25;18.20;86.70
33508;DHT22;25568;37.410;-122.096;2022-12-11T09:55:03;18.20;86.60
33508;DHT22;25568;37.410;-122.096;2022-12-11T09:57:40;18.20;86.90
33508;DHT22;25568;37.410;-122.096;2022-12-11T10:00:19;18.20;86.90
33508;DHT22;25568;37.410;-122.096;2022-12-11T10:05:56;18.10;86.80
33508;DHT22;25568;37.410;-122.096;2022-12-11T10:08:30;18.10;86.90
33508;DHT22;25568;37.410;-122.096;2022-12-11T10:11:10;18.10;86.90
33508;DHT22;25568;37.410;-122.096;2022-12-11T10:13:53;18.10;87.10
33508;DHT22;25568;37.410;-122.096;2022-12-11T10:16:34;18.10;87.20
33508;DHT22;25568;37.410;-122.096;2022-12-11T10:19:04;18.10;87.10
33508;DHT22;25568;37.410;-122.096;2022-12-11T10:21:38;18.10;87.20
33508;DHT22;25568;37.410;-122.096;2022-12-11T10:24:15;18.00;87.20
33508;DHT22;25568;37.410;-122.096;2022-12-11T10:26:46;18.10;87.30
33508;DHT22;25568;37.410;-122.096;2022-12-11T10:29:15;18.10;87.40
33508;DHT22;25568;37.410;-122.096;2022-12-11T10:31:50;18.10;87.30
33508;DHT22;25568;37.410;-122.096;2022-12-11T10:34:28;18.00;87.40
33508;DHT22;25568;37.410;-122.096;2022-12-11T10:37:01;18.00;87.40
33508;DHT22;25568;37.410;-122.096;2022-12-11T10:39:29;18.00;87.40
33508;DHT22;25568;37.410;-122.096;2022-12-11T10:41:58;18.00;87.40
33508;DHT22;25568;37.410;-122.096;2022-12-11T10:44:29;18.00;87.40
33508;DHT22;25568;37.410;-122.096;2022-12-11T10:47:06;18.00;87.50
33508;DHT22;25568;37.410;-122.096;2022-12-11T10:49:38;18.00;87.50
33508;DHT22;25568;37.410;-122.096;2022-12-11T10:52:12;18.00;87.50
33508;DHT22;25568;37.410;-122.096;2022-12-11T10:54:54;18.00;87.40
33508;DHT22;25568;37.410;-122.096;2022-12-11T10:57:28;18.10;87.30
33508;DHT22;25568;37.410;-122.096;2022-12-11T10:59:58;18.10;87.20
33508;DHT22;25568;37.410;-122.096;2022-12-11T11:02:31;18.10;87.20
33508;DHT22;25568;37.410;-122.096;2022-12-11T11:05:12;18.10;87.20
33508;DHT22;25568;37.410;-122.096;2022-12-11T11:07:41;18.10;87.20
33508;DHT22;25568;37.410;-122.096;2022-12-11T11:10:16;18.10;87.20
33508;DHT22;25568;37.410;-122.096;2022-12-11T11:12:46;18.10;87.20
33508;DHT22;25568;37.410;-122.096;2022-12-11T11:15:18;18.10;87.00
33508;DHT22;25568;37.410;-122.096;2022-12-11T11:17:51;18.20;87.10
33508;DHT22;25568;37.410;-122.096;2022-12-11T11:20:23;18.20;87.20
33508;DHT22;25568;37.410;-122.096;2022-12-11T11:22:54;18.20;87.10
33508;DHT22;25568;37.410;-122.096;2022-12-11T11:25:25;18.20;87.00
33508;DHT22;25568;37.410;-122.096;2022-12-11T11:27:56;18.20;86.90
33508;DHT22;25568;37.410;-122.096;2022-12-11T11:30:26;18.20;86.90
33508;DHT22;25568;37.410;-122.096;2022-12-11T11:33:01;18.20;86.80
33508;DHT22;25568;37.410;-122.096;2022-12-11T11:35:32;18.20;86.60
33508;DHT22;25568;37.410;-122.096;2022-12-11T11:38:04;18.20;86.80
33508;DHT22;25568;37.410;-122.096;2022-12-11T11:40:43;18.20;86.80
33508;DHT22;25568;37.410;-122.096;2022-12-11T11:43:22;18.20;86.80
33508;DHT22;25568;37.410;-122.096;2022-12-11T11:46:01;18.30;86.80
33508;DHT22;25568;37.410;-122.096;2022-12-11T11:48:39;18.30;86.90
33508;DHT22;25568;37.410;-122.096;2022-12-11T11:51:15;18.20;86.80
33508;DHT22;25568;37.410;-122.096;2022-12-11T11:53:50;18.30;86.90
33508;DHT22;25568;37.410;-122.096;2022-12-11T11:56:22;18.30;86.80
33508;DHT22;25568;37.410;-122.096;2022-12-11T11:59:02;18.30;86.80
33508;DHT22;25568;37.410;-122.096;2022-12-11T12:01:33;18.30;86.70
33508;DHT22;25568;37.410;-122.096;2022-12-11T12:04:04;18.30;86.70
33508;DHT22;25568;37.410;-122.096;2022-12-11T12:06:50;18.30;86.70
33508;DHT22;25568;37.410;-122.096;2022-12-11T12:09:33;18.30;86.90
33508;DHT22;25568;37.410;-122.096;2022-12-11T12:12:13;18.30;86.90
33508;DHT22;25568;37.410;-122.096;2022-12-11T12:14:59;18.30;86.90
33508;DHT22;25568;37.410;-122.096;2022-12-11T12:17:36;18.30;86.90
33508;DHT22;25568;37.410;-122.096;2022-12-11T12:20:16;18.30;86.80
33508;DHT22;25568;37.410;-122.096;2022-12-11T12:23:00;18.30;86.80
33508;DHT22;25568;37.410;-122.096;2022-12-11T12:25:36;18.30;86.70
33508;DHT22;25568;37.410;-122.096;2022-12-11T12:28:18;18.30;86.70
33508;DHT22;25568;37.410;-122.096;2022-12-11T12:31:02;18.30;86.60
33508;DHT22;25568;37.410;-122.096;2022-12-11T12:33:43;18.30;86.60
33508;DHT22;25568;37.410;-122.096;2022-12-11T12:36:22;18.30;86.60
33508;DHT22;25568;37.410;-122.096;2022-12-11T12:39:00;18.30;86.70
33508;DHT22;25568;37.410;-122.096;2022-12-11T12:41:37;18.20;86.70
33508;DHT22;25568;37.410;-122.096;2022-12-11T12:44:14;18.20;86.80
33508;DHT22;25568;37.410;-122.096;2022-12-11T12:46:56;18.20;87.00
33508;DHT22;25568;37.410;-122.096;2022-12-11T12:49:39;18.20;87.00
33508;DHT22;25568;37.410;-122.096;2022-12-11T12:52:14;18.20;87.20
33508;DHT22;25568;37.410;-122.096;2022-12-11T12:54:46;18.20;87.10
33508;DHT22;25568;37.410;-122.096;2022-12-11T12:57:30;18.20;87.20
33508;DHT22;25568;37.410;-122.096;2022-12-11T12:59:59;18.20;87.20
33508;DHT22;25568;37.410;-122.096;2022-12-11T13:02:29;18.20;87.10
33508;DHT22;25568;37.410;-122.096;2022-12-11T13:05:01;18.10;87.10
33508;DHT22;25568;37.410;-122.096;2022-12-11T13:07:35;18.10;87.20
33508;DHT22;25568;37.410;-122.096;2022-12-11T13:10:20;18.10;87.20
33508;DHT22;25568;37.410;-122.096;2022-12-11T13:12:50;18.00;87.30
33508;DHT22;25568;37.410;-122.096;2022-12-11T13:15:29;18.00;87.20
33508;DHT22;25568;37.410;-122.096;2022-12-11T13:17:59;18.00;87.40
33508;DHT22;25568;37.410;-122.096;2022-12-11T13:20:32;18.00;87.40
33508;DHT22;25568;37.410;-122.096;2022-12-11T13:23:30;18.00;87.40
33508;DHT22;25568;37.410;-122.096;2022-12-11T13:26:01;17.90;87.40
33508;DHT22;25568;37.410;-122.096;2022-12-11T13:28:32;17.90;87.40
33508;DHT22;25568;37.410;-122.096;2022-12-11T13:31:33;18.00;87.60
33508;DHT22;25568;37.410;-122.096;2022-12-11T13:34:15;17.90;87.80
33508;DHT22;25568;37.410;-122.096;2022-12-11T13:36:49;17.90;88.10
33508;DHT22;25568;37.410;-122.096;2022-12-11T13:39:22;17.90;88.10
33508;DHT22;25568;37.410;-122.096;2022-12-11T13:41:55;17.90;88.20
33508;DHT22;25568;37.410;-122.096;2022-12-11T13:44:27;17.80;88.20
33508;DHT22;25568;37.410;-122.096;2022-12-11T13:46:58;17.80;89.00
33508;DHT22;25568;37.410;-122.096;2022-12-11T13:49:29;17.80;88.30
33508;DHT22;25568;37.410;-122.096;2022-12-11T13:52:02;17.80;88.30
33508;DHT22;25568;37.410;-122.096;2022-12-11T13:54:34;17.80;88.20
33508;DHT22;25568;37.410;-122.096;2022-12-11T13:57:15;17.80;88.30
33508;DHT22;25568;37.410;-122.096;2022-12-11T13:59:48;17.80;88.30
33508;DHT22;25568;37.410;-122.096;2022-12-11T14:02:21;17.80;88.40
33508;DHT22;25568;37.410;-122.096;2022-12-11T14:04:53;17.70;88.30
33508;DHT22;25568;37.410;-122.096;2022-12-11T14:07:26;17.70;88.40
33508;DHT22;25568;37.410;-122.096;2022-12-11T14:10:01;17.70;88.30
33508;DHT22;25568;37.410;-122.096;2022-12-11T14:12:31;17.80;88.50
33508;DHT22;25568;37.410;-122.096;2022-12-11T14:15:02;17.70;88.30
33508;DHT22;25568;37.410;-122.096;2022-12-11T14:17:33;17.70;88.40
33508;DHT22;25568;37.410;-122.096;2022-12-11T14:20:04;17.70;88.30
33508;DHT22;25568;37.410;-122.096;2022-12-11T14:22:34;17.80;88.20
33508;DHT22;25568;37.410;-122.096;2022-12-11T14:25:21;17.80;88.00
33508;DHT22;25568;37.410;-122.096;2022-12-11T14:27:52;17.90;88.10
33508;DHT22;25568;37.410;-122.096;2022-12-11T14:30:23;17.90;88.00
33508;DHT22;25568;37.410;-122.096;2022-12-11T14:32:55;17.90;88.00
33508;DHT22;25568;37.410;-122.096;2022-12-11T14:35:30;17.90;87.90
33508;DHT22;25568;37.410;-122.096;2022-12-11T14:38:03;17.90;87.80
33508;DHT22;25568;37.410;-122.096;2022-12-11T14:40:38;17.90;87.60
33508;DHT22;25568;37.410;-122.096;2022-12-11T14:43:13;17.90;87.50
33508;DHT22;25568;37.410;-122.096;2022-12-11T14:45:44;17.90;87.30
33508;DHT22;25568;37.410;-122.096;2022-12-11T14:48:20;17.90;87.40
33508;DHT22;25568;37.410;-122.096;2022-12-11T14:50:52;17.90;87.40
33508;DHT22;25568;37.410;-122.096;2022-12-11T14:53:23;17.90;87.40
33508;DHT22;25568;37.410;-122.096;2022-12-11T14:55:58;17.90;87.30
33508;DHT22;25568;37.410;-122.096;2022-12-11T14:58:29;17.90;87.20
33508;DHT22;25568;37.410;-122.096;2022-12-11T15:01:00;17.90;87.30
33508;DHT22;25568;37.410;-122.096;2022-12-11T15:03:32;17.90;87.90
33508;DHT22;25568;37.410;-122.096;2022-12-11T15:06:02;17.90;87.10
33508;DHT22;25568;37.410;-122.096;2022-12-11T15:08:33;17.90;87.10
33508;DHT22;25568;37.410;-122.096;2022-12-11T15:11:06;17.90;87.00
33508;DHT22;25568;37.410;-122.096;2022-12-11T15:13:50;17.90;87.10
33508;DHT22;25568;37.410;-122.096;2022-12-11T15:16:20;17.90;87.10
33508;DHT22;25568;37.410;-122.096;2022-12-11T15:18:50;18.00;87.20
33508;DHT22;25568;37.410;-122.096;2022-12-11T15:21:28;18.00;87.10
33508;DHT22;25568;37.410;-122.096;2022-12-11T15:23:59;18.00;87.10
33508;DHT22;25568;37.410;-122.096;2022-12-11T15:26:37;18.00;87.10